Time;durP1;ratioP1;P1;durP2;ratioP2;P2;SDS_P1;SDS_P2;PMS_P1;PMS_P2;Temp;Humidity;BMP_temperature;BMP_pressure;BME280_temperature;BME280_humidity;BME280_pressure;Samples;Min_cycle;Max_cycle;Signal;HPM_P1;HPM_P2
2023/04/22 00:01:41;;;;;;;36.50;33.05;;;;;;;;;;5051631;28;20473;-63
2023/04/22 00:04:07;;;;;;;34.80;31.40;;;;;;;;;;5033372;28;20036;-64
2023/04/22 00:06:34;;;;;;;34.70;31.45;;;;;;;;;;5036112;28;20025;-62
2023/04/22 00:11:38;;;;;;;36.15;32.80;;;;;;;;;;5048446;28;20045;-62
2023/04/22 00:14:04;;;;;;;36.22;32.83;;;;;;;;;;5050499;28;20029;-61
2023/04/22 00:16:30;;;;;;;37.53;33.97;;;;;;;;;;5048253;28;20020;-64
2023/04/22 00:18:56;;;;;;;35.53;32.20;;;;;;;;;;5050859;28;20017;-63
2023/04/22 00:21:22;;;;;;;36.00;32.45;;;;;;;;;;5052552;28;20397;-64
2023/04/22 00:23:48;;;;;;;34.65;31.45;;;;;;;;;;5054836;28;20025;-62
2023/04/22 00:26:14;;;;;;;35.67;32.28;;;;;;;;;;5054861;28;20017;-64
2023/04/22 00:28:40;;;;;;;35.47;32.08;;;;;;;;;;5054809;28;20020;-63
2023/04/22 00:31:06;;;;;;;36.67;32.92;;;;;;;;;;5054667;28;20017;-63
2023/04/22 00:33:32;;;;;;;36.47;33.03;;;;;;;;;;5054541;28;20075;-65
2023/04/22 00:35:58;;;;;;;38.85;35.20;;;;;;;;;;5054733;28;20430;-61
2023/04/22 00:38:24;;;;;;;38.83;34.88;;;;;;;;;;5054865;28;20107;-63
2023/04/22 00:40:50;;;;;;;39.60;35.55;;;;;;;;;;5054639;28;20047;-61
2023/04/22 00:43:16;;;;;;;40.33;36.40;;;;;;;;;;5054295;28;20032;-64
2023/04/22 00:45:43;;;;;;;39.30;35.40;;;;;;;;;;5054413;28;20031;-64
2023/04/22 00:48:09;;;;;;;38.78;35.08;;;;;;;;;;5054661;28;20488;-62
2023/04/22 00:50:35;;;;;;;39.90;36.15;;;;;;;;;;5069922;28;20096;-63
2023/04/22 00:53:01;;;;;;;39.17;35.58;;;;;;;;;;5061474;28;20029;-62
2023/04/22 00:55:27;;;;;;;39.97;36.10;;;;;;;;;;5054358;28;20045;-64
2023/04/22 00:57:54;;;;;;;40.05;35.97;;;;;;;;;;5054448;28;20032;-63
2023/04/22 01:00:25;;;;;;;41.67;37.67;;;;;;;;;;5054156;28;20028;-59
2023/04/22 01:02:54;;;;;;;40.10;36.30;;;;;;;;;;5054200;28;20127;-61
2023/04/22 01:05:20;;;;;;;40.45;36.65;;;;;;;;;;5054122;28;20021;-60
2023/04/22 01:07:46;;;;;;;39.58;35.78;;;;;;;;;;5054294;28;20071;-63
2023/04/22 01:10:12;;;;;;;41.50;37.38;;;;;;;;;;5052855;28;20082;-61
2023/04/22 01:12:38;;;;;;;40.15;36.25;;;;;;;;;;5054371;28;20028;-59
2023/04/22 01:15:05;;;;;;;40.10;36.38;;;;;;;;;;5054016;28;20025;-60
2023/04/22 01:17:32;;;;;;;40.42;36.72;;;;;;;;;;5053082;28;20021;-60
2023/04/22 01:19:58;;;;;;;40.42;36.53;;;;;;;;;;5054094;28;20452;-62
2023/04/22 01:22:28;;;;;;;39.22;35.53;;;;;;;;;;5053989;28;20060;-61
2023/04/22 01:24:55;;;;;;;40.72;36.92;;;;;;;;;;5053776;28;20045;-59
2023/04/22 01:27:21;;;;;;;40.83;36.95;;;;;;;;;;5053994;28;20028;-63
2023/04/22 01:29:47;;;;;;;40.65;36.78;;;;;;;;;;5052570;28;20059;-61
2023/04/22 01:32:13;;;;;;;40.08;36.30;;;;;;;;;;5052862;28;20029;-62
2023/04/22 01:34:39;;;;;;;38.90;35.47;;;;;;;;;;5051810;28;20040;-61
2023/04/22 01:37:06;;;;;;;40.58;36.70;;;;;;;;;;5053670;28;20052;-64
2023/04/22 01:39:32;;;;;;;39.83;36.03;;;;;;;;;;5053619;28;20039;-61
2023/04/22 01:41:58;;;;;;;40.78;37.05;;;;;;;;;;5053529;28;20036;-62
2023/04/22 01:44:25;;;;;;;38.65;35.15;;;;;;;;;;5053468;28;20393;-63
2023/04/22 01:46:51;;;;;;;39.67;36.13;;;;;;;;;;5053631;28;20017;-63
2023/04/22 01:49:17;;;;;;;40.30;36.70;;;;;;;;;;5053471;28;20028;-61
2023/04/22 01:51:43;;;;;;;40.15;36.50;;;;;;;;;;5052291;28;20017;-63
2023/04/22 01:54:10;;;;;;;40.00;36.50;;;;;;;;;;5053279;28;20374;-64
2023/04/22 01:56:37;;;;;;;40.13;36.35;;;;;;;;;;5053463;28;20029;-63
2023/04/22 01:59:03;;;;;;;41.08;37.47;;;;;;;;;;5053348;28;20045;-63
2023/04/22 02:01:29;;;;;;;39.70;36.10;;;;;;;;;;5052091;28;20029;-65
2023/04/22 02:03:55;;;;;;;40.83;37.13;;;;;;;;;;5052839;28;20024;-64
2023/04/22 02:06:21;;;;;;;40.00;36.08;;;;;;;;;;5053210;28;20025;-63
2023/04/22 02:08:47;;;;;;;40.95;37.20;;;;;;;;;;5053000;28;20021;-62
2023/04/22 02:11:13;;;;;;;41.08;37.40;;;;;;;;;;5052892;28;20108;-60
2023/04/22 02:13:40;;;;;;;39.85;36.10;;;;;;;;;;5052759;28;20017;-60
2023/04/22 02:16:08;;;;;;;39.25;35.72;;;;;;;;;;5051702;28;20025;-62
2023/04/22 02:18:34;;;;;;;39.80;36.22;;;;;;;;;;5052745;28;20528;-59
2023/04/22 02:21:00;;;;;;;39.53;36.03;;;;;;;;;;5052857;28;20500;-61
2023/04/22 02:23:26;;;;;;;50.05;37.38;;;;;;;;;;5052482;28;20060;-60
2023/04/22 02:25:53;;;;;;;39.08;35.65;;;;;;;;;;5053154;28;20401;-62
2023/04/22 02:28:19;;;;;;;39.22;35.60;;;;;;;;;;5052771;28;20074;-59
2023/04/22 02:30:45;;;;;;;38.85;35.33;;;;;;;;;;5052765;28;20044;-59
2023/04/22 02:33:11;;;;;;;39.58;36.08;;;;;;;;;;5052410;28;20529;-62
2023/04/22 02:35:37;;;;;;;38.40;35.00;;;;;;;;;;5052621;28;20110;-61
2023/04/22 02:38:04;;;;;;;39.95;36.42;;;;;;;;;;5052714;28;20495;-63
2023/04/22 02:40:30;;;;;;;39.80;36.28;;;;;;;;;;5051478;28;20642;-60
2023/04/22 02:42:56;;;;;;;37.70;34.35;;;;;;;;;;5052393;28;20108;-63
2023/04/22 02:45:22;;;;;;;38.08;34.78;;;;;;;;;;5051934;28;20389;-63
2023/04/22 02:47:48;;;;;;;37.83;34.58;;;;;;;;;;5052336;28;20040;-61
2023/04/22 02:50:14;;;;;;;37.58;34.42;;;;;;;;;;5052209;28;20108;-63
2023/04/22 02:52:39;;;;;;;38.15;34.85;;;;;;;;;;5052248;28;20101;-59
2023/04/22 02:55:06;;;;;;;39.22;35.67;;;;;;;;;;5052067;28;20086;-62
2023/04/22 02:57:32;;;;;;;39.90;36.47;;;;;;;;;;5052164;28;20029;-61
2023/04/22 02:59:58;;;;;;;39.92;36.42;;;;;;;;;;5052259;28;20028;-60
2023/04/22 03:02:24;;;;;;;39.30;35.67;;;;;;;;;;5052270;28;20036;-63
2023/04/22 03:04:51;;;;;;;39.53;36.05;;;;;;;;;;5050786;28;20029;-62
2023/04/22 03:07:17;;;;;;;39.45;36.05;;;;;;;;;;5050787;28;20539;-62
2023/04/22 03:09:43;;;;;;;39.47;36.15;;;;;;;;;;5050414;28;20033;-59
2023/04/22 03:12:09;;;;;;;39.67;36.38;;;;;;;;;;5051897;28;20025;-61
2023/04/22 03:14:35;;;;;;;38.88;35.45;;;;;;;;;;5051639;28;20031;-62
2023/04/22 03:17:01;;;;;;;38.65;35.25;;;;;;;;;;5051714;28;20024;-60
2023/04/22 03:19:27;;;;;;;38.40;35.10;;;;;;;;;;5051732;28;20032;-62
2023/04/22 03:21:53;;;;;;;39.17;35.80;;;;;;;;;;5051692;28;20072;-62
2023/04/22 03:24:19;;;;;;;40.55;36.95;;;;;;;;;;5051483;28;20436;-62
2023/04/22 03:26:45;;;;;;;40.70;37.20;;;;;;;;;;5051731;28;20143;-60
2023/04/22 03:29:11;;;;;;;41.13;37.50;;;;;;;;;;5051578;28;20024;-61
2023/04/22 03:31:37;;;;;;;39.67;36.28;;;;;;;;;;5050549;28;20045;-61
2023/04/22 03:34:03;;;;;;;40.63;37.05;;;;;;;;;;5051642;28;20029;-63
2023/04/22 03:36:30;;;;;;;39.17;35.78;;;;;;;;;;5051345;28;20079;-62
2023/04/22 03:38:56;;;;;;;39.42;36.13;;;;;;;;;;5051281;28;20507;-61
2023/04/22 03:41:22;;;;;;;42.20;38.60;;;;;;;;;;5051103;28;20112;-61
2023/04/22 03:43:48;;;;;;;42.78;38.97;;;;;;;;;;5051224;28;20428;-62
2023/04/22 03:46:14;;;;;;;40.92;37.13;;;;;;;;;;5051454;28;20025;-63
2023/04/22 03:48:40;;;;;;;41.40;37.80;;;;;;;;;;5050988;28;20029;-62
2023/04/22 03:51:06;;;;;;;39.47;36.08;;;;;;;;;;5046490;28;20108;-64
2023/04/22 03:53:32;;;;;;;40.42;37.03;;;;;;;;;;5047285;28;20025;-61
2023/04/22 03:55:58;;;;;;;39.85;36.35;;;;;;;;;;5052401;28;20025;-64
2023/04/22 03:58:24;;;;;;;40.20;36.80;;;;;;;;;;5055508;28;20100;-65
2023/04/22 04:00:50;;;;;;;40.75;37.35;;;;;;;;;;5055301;28;20413;-61
2023/04/22 04:03:16;;;;;;;40.63;37.22;;;;;;;;;;5055148;28;20090;-61
2023/04/22 04:05:42;;;;;;;40.78;37.35;;;;;;;;;;5056416;28;20108;-60
2023/04/22 04:08:08;;;;;;;42.47;38.75;;;;;;;;;;5055160;28;20409;-62
2023/04/22 04:10:34;;;;;;;41.28;37.67;;;;;;;;;;5054916;28;20025;-60
2023/04/22 04:13:00;;;;;;;42.13;38.33;;;;;;;;;;5055257;28;20108;-60
2023/04/22 04:15:26;;;;;;;41.05;37.47;;;;;;;;;;5054907;28;20113;-62
2023/04/22 04:17:52;;;;;;;40.40;36.92;;;;;;;;;;5055000;28;20032;-58
2023/04/22 04:20:18;;;;;;;41.28;37.67;;;;;;;;;;5054993;28;20527;-61
2023/04/22 04:22:44;;;;;;;40.15;36.50;;;;;;;;;;5054829;28;20378;-60
2023/04/22 04:25:10;;;;;;;40.75;37.30;;;;;;;;;;5054655;28;20079;-63
2023/04/22 04:27:38;;;;;;;40.72;37.33;;;;;;;;;;5054751;28;20047;-62
2023/04/22 04:30:04;;;;;;;40.72;37.22;;;;;;;;;;5070183;28;20043;-65
2023/04/22 04:32:33;;;;;;;40.17;36.88;;;;;;;;;;5054951;28;20087;-64
2023/04/22 04:34:59;;;;;;;;;;;;;;;;;;5055126;28;20450;-61
2023/04/22 04:37:25;;;;;;;39.03;35.72;;;;;;;;;;5053823;28;19904;-62
2023/04/22 04:39:51;;;;;;;39.60;36.20;;;;;;;;;;5054904;28;20053;-61
2023/04/22 04:42:17;;;;;;;40.13;36.72;;;;;;;;;;5069858;28;20082;-61
2023/04/22 04:44:43;;;;;;;39.15;35.67;;;;;;;;;;5054313;28;20033;-63
2023/04/22 04:47:09;;;;;;;39.65;36.05;;;;;;;;;;5054397;28;20024;-62
2023/04/22 04:49:38;;;;;;;40.33;36.70;;;;;;;;;;5054661;28;20574;-60
2023/04/22 04:52:08;;;;;;;39.33;35.95;;;;;;;;;;5070553;28;20358;-61
2023/04/22 04:54:34;;;;;;;38.88;35.58;;;;;;;;;;5054747;28;20032;-63
2023/04/22 04:57:00;;;;;;;38.45;35.15;;;;;;;;;;5054789;28;20028;-63
2023/04/22 04:59:27;;;;;;;39.25;35.78;;;;;;;;;;5054465;28;20028;-63
2023/04/22 05:01:53;;;;;;;38.92;35.55;;;;;;;;;;5054511;28;20393;-64
2023/04/22 05:04:19;;;;;;;37.70;34.55;;;;;;;;;;5054149;28;20028;-63
2023/04/22 05:06:45;;;;;;;37.92;34.63;;;;;;;;;;5053948;28;20029;-62
2023/04/22 05:09:11;;;;;;;38.30;35.00;;;;;;;;;;5054220;28;20504;-63
2023/04/22 05:11:37;;;;;;;37.53;34.13;;;;;;;;;;5054180;28;20033;-63
2023/04/22 05:14:03;;;;;;;39.25;35.72;;;;;;;;;;5069286;28;20039;-64
2023/04/22 05:16:29;;;;;;;36.63;33.53;;;;;;;;;;5069464;28;20021;-64
2023/04/22 05:18:55;;;;;;;36.58;33.38;;;;;;;;;;5054024;28;20028;-61
2023/04/22 05:21:21;;;;;;;34.90;31.98;;;;;;;;;;5053917;28;20032;-59
2023/04/22 05:23:47;;;;;;;35.10;32.13;;;;;;;;;;5053814;28;20017;-61
2023/04/22 05:26:13;;;;;;;34.58;31.63;;;;;;;;;;5054111;28;20033;-61
2023/04/22 05:28:39;;;;;;;34.03;31.05;;;;;;;;;;5053835;28;20078;-61
2023/04/22 05:31:05;;;;;;;34.53;31.45;;;;;;;;;;5053976;28;20106;-61
2023/04/22 05:33:31;;;;;;;33.10;30.23;;;;;;;;;;5053949;28;20029;-60
2023/04/22 05:35:57;;;;;;;34.92;31.85;;;;;;;;;;5054299;28;20025;-60
2023/04/22 05:38:23;;;;;;;33.60;30.60;;;;;;;;;;5054118;28;20031;-60
2023/04/22 05:40:49;;;;;;;33.17;30.27;;;;;;;;;;5053874;28;20025;-61
2023/04/22 05:43:15;;;;;;;33.90;30.90;;;;;;;;;;5053937;28;20032;-63
2023/04/22 05:45:41;;;;;;;33.45;30.45;;;;;;;;;;5054539;28;20086;-63
2023/04/22 05:48:07;;;;;;;34.72;31.73;;;;;;;;;;5051610;28;20025;-61
2023/04/22 05:50:33;;;;;;;33.15;30.15;;;;;;;;;;5025962;28;20032;-62
2023/04/22 05:52:59;;;;;;;32.08;29.27;;;;;;;;;;5048111;28;20112;-62
2023/04/22 05:55:26;;;;;;;32.60;29.58;;;;;;;;;;5054407;28;20120;-61
2023/04/22 05:57:52;;;;;;;32.17;29.17;;;;;;;;;;5035167;28;20464;-63
2023/04/22 06:00:18;;;;;;;30.75;28.05;;;;;;;;;;5033400;28;20105;-61
2023/04/22 06:02:44;;;;;;;31.30;28.45;;;;;;;;;;5015440;28;20033;-63
2023/04/22 06:05:10;;;;;;;30.92;28.13;;;;;;;;;;5041114;28;20527;-63
2023/04/22 06:07:36;;;;;;;30.02;27.33;;;;;;;;;;5053025;28;20020;-62
2023/04/22 06:10:02;;;;;;;31.23;28.45;;;;;;;;;;5068872;22;20622;-65
2023/04/22 06:12:28;;;;;;;28.88;26.27;;;;;;;;;;5013432;28;20037;-63
2023/04/22 06:14:54;;;;;;;29.85;27.00;;;;;;;;;;4995112;28;20033;-63
2023/04/22 06:17:20;;;;;;;30.60;27.70;;;;;;;;;;4995922;28;20112;-64
2023/04/22 06:19:46;;;;;;;28.80;26.02;;;;;;;;;;5012613;28;20406;-64
2023/04/22 06:22:12;;;;;;;28.88;26.13;;;;;;;;;;5020625;28;20017;-63
2023/04/22 06:24:38;;;;;;;27.42;24.90;;;;;;;;;;5014927;28;20044;-65
2023/04/22 06:27:04;;;;;;;28.52;25.83;;;;;;;;;;5015063;28;20028;-64
2023/04/22 06:29:30;;;;;;;26.75;24.23;;;;;;;;;;5032534;28;20044;-66
2023/04/22 06:31:56;;;;;;;27.67;24.88;;;;;;;;;;5032767;28;20048;-65
2023/04/22 06:34:22;;;;;;;28.42;25.52;;;;;;;;;;5014751;28;20040;-66
2023/04/22 06:36:48;;;;;;;26.33;23.75;;;;;;;;;;5014888;28;20026;-66
2023/04/22 06:39:14;;;;;;;27.42;24.83;;;;;;;;;;5014681;28;20032;-65
2023/04/22 06:41:43;;;;;;;26.60;24.00;;;;;;;;;;5014693;28;20021;-65
2023/04/22 06:44:09;;;;;;;26.08;23.38;;;;;;;;;;5032276;28;20060;-65
2023/04/22 06:46:35;;;;;;;24.30;21.80;;;;;;;;;;5015130;28;20022;-65
2023/04/22 06:49:01;;;;;;;23.10;20.58;;;;;;;;;;5007724;28;20026;-66
2023/04/22 06:51:27;;;;;;;23.38;20.98;;;;;;;;;;5012269;28;20174;-66
2023/04/22 06:53:53;;;;;;;23.42;20.73;;;;;;;;;;5012217;28;20022;-65
2023/04/22 06:56:19;;;;;;;22.48;19.05;;;;;;;;;;5012445;28;20029;-66
2023/04/22 06:58:45;;;;;;;23.35;20.67;;;;;;;;;;5012400;28;20024;-63
2023/04/22 07:01:11;;;;;;;21.77;19.08;;;;;;;;;;5012338;28;20097;-65
2023/04/22 07:03:37;;;;;;;22.70;19.27;;;;;;;;;;4994447;28;20030;-66
2023/04/22 07:06:04;;;;;;;22.73;18.95;;;;;;;;;;5012408;28;20022;-66
2023/04/22 07:08:30;;;;;;;22.35;18.98;;;;;;;;;;4994743;28;20029;-66
2023/04/22 07:10:56;;;;;;;23.30;19.08;;;;;;;;;;5012124;28;20478;-65
2023/04/22 07:13:22;;;;;;;21.77;17.30;;;;;;;;;;5012054;28;20096;-66
2023/04/22 07:15:48;;;;;;;21.58;17.05;;;;;;;;;;5012137;28;20049;-66
2023/04/22 07:18:14;;;;;;;20.60;17.48;;;;;;;;;;5011873;28;20489;-66
2023/04/22 07:20:40;;;;;;;23.10;18.08;;;;;;;;;;4994426;28;20033;-66
2023/04/22 07:23:06;;;;;;;21.75;17.15;;;;;;;;;;5017563;28;20597;-66
2023/04/22 07:25:32;;;;;;;21.08;17.50;;;;;;;;;;5013803;28;20033;-66
2023/04/22 07:27:58;;;;;;;21.30;16.65;;;;;;;;;;5031517;28;20025;-66
2023/04/22 07:30:24;;;;;;;20.23;15.60;;;;;;;;;;5031447;28;20025;-66
2023/04/22 07:32:51;;;;;;;23.08;15.52;;;;;;;;;;5013551;28;20068;-66
2023/04/22 07:35:17;;;;;;;19.98;14.50;;;;;;;;;;5031337;28;20021;-65
2023/04/22 07:37:43;;;;;;;18.67;13.20;;;;;;;;;;5031437;28;20426;-65
2023/04/22 07:40:10;;;;;;;19.98;13.93;;;;;;;;;;5031197;28;20144;-66
2023/04/22 07:42:38;;;;;;;21.08;13.60;;;;;;;;;;5031072;28;20022;-68
2023/04/22 07:45:04;;;;;;;18.98;13.48;;;;;;;;;;5030804;28;20017;-63
2023/04/22 07:47:30;;;;;;;21.38;13.85;;;;;;;;;;5031040;28;20030;-57
2023/04/22 07:49:56;;;;;;;18.75;12.65;;;;;;;;;;5018534;28;20100;-58
2023/04/22 07:52:22;;;;;;;23.45;13.05;;;;;;;;;;5011271;28;20030;-58
2023/04/22 07:54:48;;;;;;;19.15;12.77;;;;;;;;;;5011167;28;20088;-57
2023/04/22 07:57:14;;;;;;;21.60;13.40;;;;;;;;;;5011243;28;20442;-55
2023/04/22 07:59:40;;;;;;;24.70;13.27;;;;;;;;;;5011594;28;20557;-53
2023/04/22 08:02:06;;;;;;;20.05;13.05;;;;;;;;;;5011496;28;20034;-58
2023/04/22 08:04:32;;;;;;;21.02;13.60;;;;;;;;;;5011200;28;20026;-61
2023/04/22 08:06:58;;;;;;;20.38;13.57;;;;;;;;;;5011352;28;20018;-58
2023/04/22 08:09:24;;;;;;;19.70;12.40;;;;;;;;;;5011317;28;20029;-60
2023/04/22 08:11:52;;;;;;;19.42;13.32;;;;;;;;;;5011004;28;20034;-61
2023/04/22 08:14:18;;;;;;;19.05;12.90;;;;;;;;;;4993348;28;20104;-57
2023/04/22 08:16:44;;;;;;;19.75;11.98;;;;;;;;;;4993748;28;20630;-56
2023/04/22 08:19:10;;;;;;;17.45;11.30;;;;;;;;;;4993855;28;20034;-49
2023/04/22 08:21:37;;;;;;;20.08;12.02;;;;;;;;;;5011299;28;20057;-62
2023/04/22 08:24:03;;;;;;;18.92;11.35;;;;;;;;;;5010777;28;20026;-64
2023/04/22 08:26:29;;;;;;;17.95;11.27;;;;;;;;;;5011431;28;20091;-64
2023/04/22 08:28:55;;;;;;;18.95;11.57;;;;;;;;;;5011329;28;20033;-67
2023/04/22 08:31:21;;;;;;;16.90;10.60;;;;;;;;;;5010489;28;20026;-63
2023/04/22 08:33:47;;;;;;;17.80;10.55;;;;;;;;;;5010467;28;20042;-67
2023/04/22 08:36:13;;;;;;;17.45;10.55;;;;;;;;;;4993189;28;20116;-66
2023/04/22 08:38:40;;;;;;;17.80;10.15;;;;;;;;;;5011200;28;20494;-68
2023/04/22 08:41:09;;;;;;;17.13;10.43;;;;;;;;;;5011059;28;20454;-66
2023/04/22 08:43:35;;;;;;;16.13;10.13;;;;;;;;;;5019399;28;20026;-64
2023/04/22 08:46:01;;;;;;;16.90;10.55;;;;;;;;;;5018481;28;20026;-66
2023/04/22 08:48:27;;;;;;;18.90;11.52;;;;;;;;;;5016729;28;20058;-66
2023/04/22 08:50:53;;;;;;;18.60;10.82;;;;;;;;;;5014801;28;20025;-67
2023/04/22 08:53:23;;;;;;;16.15;10.82;;;;;;;;;;5014982;28;20109;-65
2023/04/22 08:55:49;;;;;;;18.30;11.02;;;;;;;;;;4997571;28;20414;-65
2023/04/22 08:58:15;;;;;;;18.83;10.73;;;;;;;;;;4997300;28;20068;-65
2023/04/22 09:00:42;;;;;;;15.88;10.05;;;;;;;;;;5014992;28;20429;-66
2023/04/22 09:03:09;;;;;;;16.67;10.32;;;;;;;;;;5014740;28;20038;-67
2023/04/22 09:05:36;;;;;;;18.55;10.50;;;;;;;;;;5015994;28;20026;-65
2023/04/22 09:08:03;;;;;;;20.80;10.30;;;;;;;;;;4998478;28;20145;-65
2023/04/22 09:10:32;;;;;;;18.75;10.55;;;;;;;;;;4997718;28;20034;-66
2023/04/22 09:12:58;;;;;;;16.80;10.75;;;;;;;;;;5014755;28;20096;-66
2023/04/22 09:15:25;;;;;;;16.02;10.10;;;;;;;;;;4996313;28;20022;-65
2023/04/22 09:17:51;;;;;;;16.17;10.23;;;;;;;;;;5014240;28;20022;-68
2023/04/22 09:20:18;;;;;;;18.50;11.60;;;;;;;;;;4996785;28;20447;-63
2023/04/22 09:22:48;;;;;;;16.48;11.23;;;;;;;;;;5013907;28;20022;-63
2023/04/22 09:25:21;;;;;;;19.67;13.25;;;;;;;;;;5013845;28;20026;-66
2023/04/22 09:27:48;;;;;;;16.33;10.65;;;;;;;;;;5013917;28;20030;-65
2023/04/22 09:30:14;;;;;;;16.85;10.98;;;;;;;;;;5014021;28;20041;-65
2023/04/22 09:32:40;;;;;;;16.33;10.65;;;;;;;;;;5013645;28;20048;-65
2023/04/22 09:35:07;;;;;;;16.67;10.52;;;;;;;;;;4996166;28;20428;-66
2023/04/22 09:37:33;;;;;;;15.55;10.50;;;;;;;;;;4996239;28;20116;-65
2023/04/22 09:39:59;;;;;;;17.08;10.50;;;;;;;;;;4996013;28;20018;-66
2023/04/22 09:42:25;;;;;;;16.20;11.10;;;;;;;;;;5013401;28;20049;-64
2023/04/22 09:44:51;;;;;;;16.20;10.48;;;;;;;;;;4996027;28;20494;-66
2023/04/22 09:47:19;;;;;;;16.52;11.05;;;;;;;;;;4996011;28;20026;-66
2023/04/22 09:49:45;;;;;;;19.13;11.53;;;;;;;;;;5012720;28;20044;-66
2023/04/22 09:52:20;;;;;;;17.80;11.35;;;;;;;;;;5012937;28;20033;-66
2023/04/22 09:54:53;;;;;;;16.65;10.48;;;;;;;;;;4994440;28;20121;-66
2023/04/22 09:57:20;;;;;;;16.55;11.18;;;;;;;;;;5008098;28;20041;-63
2023/04/22 09:59:46;;;;;;;18.20;10.90;;;;;;;;;;4992666;28;20026;-65
2023/04/22 10:02:12;;;;;;;17.90;10.88;;;;;;;;;;5012383;28;20036;-65
2023/04/22 10:04:38;;;;;;;16.65;10.48;;;;;;;;;;5012910;28;20498;-66
2023/04/22 10:07:04;;;;;;;16.48;10.32;;;;;;;;;;5012952;28;20030;-64
2023/04/22 10:09:30;;;;;;;17.05;10.40;;;;;;;;;;5012373;28;20026;-63
2023/04/22 10:12:00;;;;;;;19.20;10.85;;;;;;;;;;5012507;28;20046;-66
2023/04/22 10:14:26;;;;;;;17.02;10.63;;;;;;;;;;5012589;28;20045;-64
2023/04/22 10:17:02;;;;;;;16.70;10.80;;;;;;;;;;5012229;28;20478;-66
2023/04/22 10:19:28;;;;;;;24.27;15.48;;;;;;;;;;5013000;28;20022;-63
2023/04/22 10:22:02;;;;;;;16.25;10.25;;;;;;;;;;5012143;28;20493;-66
2023/04/22 10:24:28;;;;;;;15.73;10.43;;;;;;;;;;4994491;28;20548;-65
2023/04/22 10:27:01;;;;;;;16.17;10.45;;;;;;;;;;5011190;28;21302;-66
2023/04/22 10:29:34;;;;;;;15.68;9.93;;;;;;;;;;5012523;28;20037;-64
2023/04/22 10:32:09;;;;;;;18.55;10.55;;;;;;;;;;5006901;28;20038;-66
2023/04/22 10:34:37;;;;;;;17.77;10.60;;;;;;;;;;5011571;28;20026;-65
2023/04/22 10:37:10;;;;;;;17.77;9.93;;;;;;;;;;5012304;28;20479;-65
2023/04/22 10:39:37;;;;;;;15.73;10.00;;;;;;;;;;5012030;28;20087;-65
2023/04/22 10:42:06;;;;;;;17.15;10.50;;;;;;;;;;5011585;28;20030;-64
2023/04/22 10:45:04;;;;;;;15.77;10.40;;;;;;;;;;5011818;28;20045;-65
2023/04/22 10:47:31;;;;;;;18.00;10.90;;;;;;;;;;4958577;28;20095;-65
2023/04/22 10:50:16;;;;;;;23.55;10.75;;;;;;;;;;5011731;28;20018;-66
2023/04/22 10:52:43;;;;;;;18.48;10.60;;;;;;;;;;5011413;28;20582;-64
2023/04/22 10:55:09;;;;;;;15.25;10.05;;;;;;;;;;5011770;28;20029;-66
2023/04/22 10:57:38;;;;;;;16.80;11.15;;;;;;;;;;5011719;28;20521;-64
2023/04/22 11:00:16;;;;;;;15.60;10.02;;;;;;;;;;5011915;28;20040;-66
2023/04/22 11:02:46;;;;;;;16.10;10.60;;;;;;;;;;5011467;28;20116;-65
2023/04/22 11:05:19;;;;;;;16.33;10.60;;;;;;;;;;5010740;28;20390;-63
2023/04/22 11:07:47;;;;;;;17.63;10.70;;;;;;;;;;5011003;28;20164;-66
2023/04/22 11:10:29;;;;;;;16.48;10.70;;;;;;;;;;5011353;28;20026;-66
2023/04/22 11:12:55;;;;;;;16.10;10.63;;;;;;;;;;5011955;28;20041;-66
2023/04/22 11:15:24;;;;;;;15.57;10.60;;;;;;;;;;5013631;28;20123;-66
2023/04/22 11:17:51;;;;;;;16.52;10.40;;;;;;;;;;5022740;28;20367;-66
2023/04/22 11:20:17;;;;;;;17.10;10.95;;;;;;;;;;5020137;28;20030;-67
2023/04/22 11:22:46;;;;;;;16.05;10.35;;;;;;;;;;5012333;28;20021;-67
2023/04/22 11:25:13;;;;;;;15.95;10.70;;;;;;;;;;5011438;28;20025;-66
2023/04/22 11:27:40;;;;;;;16.70;10.48;;;;;;;;;;5011755;28;20036;-65
2023/04/22 11:30:06;;;;;;;17.33;10.82;;;;;;;;;;5009508;28;20044;-67
2023/04/22 11:32:33;;;;;;;16.02;10.55;;;;;;;;;;5010944;28;20105;-66
2023/04/22 11:35:02;;;;;;;15.88;10.57;;;;;;;;;;5009788;28;20041;-66
2023/04/22 11:37:28;;;;;;;16.15;10.45;;;;;;;;;;5010998;28;20025;-68
2023/04/22 11:39:59;;;;;;;19.10;11.25;;;;;;;;;;5011073;28;20045;-70
2023/04/22 11:42:25;;;;;;;16.17;10.60;;;;;;;;;;5011383;28;20029;-68
2023/04/22 11:44:51;;;;;;;16.33;11.40;;;;;;;;;;5010062;28;20030;-68
2023/04/22 11:47:18;;;;;;;15.50;10.65;;;;;;;;;;5010465;28;20041;-67
2023/04/22 11:49:58;;;;;;;16.77;10.10;;;;;;;;;;5011068;28;20045;-66
2023/04/22 11:52:25;;;;;;;15.60;11.13;;;;;;;;;;5010998;28;20427;-67
2023/04/22 11:54:51;;;;;;;17.33;11.10;;;;;;;;;;5010929;28;20505;-66
2023/04/22 11:57:17;;;;;;;16.08;10.43;;;;;;;;;;4993561;28;20022;-66
2023/04/22 11:59:44;;;;;;;17.25;11.30;;;;;;;;;;4993549;28;20109;-67
2023/04/22 12:02:10;;;;;;;19.08;11.98;;;;;;;;;;4993506;28;20478;-66
2023/04/22 12:04:38;;;;;;;17.38;12.23;;;;;;;;;;5011180;28;20019;-68
2023/04/22 12:07:04;;;;;;;17.17;10.95;;;;;;;;;;4994155;28;20030;-67
2023/04/22 12:09:30;;;;;;;15.57;10.90;;;;;;;;;;4994191;28;20025;-67
2023/04/22 12:11:56;;;;;;;17.33;11.10;;;;;;;;;;5022761;23;20038;-61
2023/04/22 12:14:33;;;;;;;15.73;10.93;;;;;;;;;;5011073;28;20061;-65
2023/04/22 12:17:03;;;;;;;16.27;10.68;;;;;;;;;;5012615;28;20032;-64
2023/04/22 12:19:29;;;;;;;17.27;11.05;;;;;;;;;;4997789;28;20026;-64
2023/04/22 12:21:58;;;;;;;15.75;10.52;;;;;;;;;;5015372;28;20049;-64
2023/04/22 12:24:28;;;;;;;15.95;10.43;;;;;;;;;;4998141;28;20029;-62
2023/04/22 12:26:54;;;;;;;20.63;11.35;;;;;;;;;;5011841;28;20088;-64
2023/04/22 12:29:27;;;;;;;15.88;10.20;;;;;;;;;;5015374;28;20430;-63
2023/04/22 12:31:53;;;;;;;17.67;10.75;;;;;;;;;;5014834;28;20034;-65
2023/04/22 12:34:19;;;;;;;15.25;10.40;;;;;;;;;;4996963;28;20117;-68
2023/04/22 12:36:45;;;;;;;17.20;10.50;;;;;;;;;;5014300;28;20033;-65
2023/04/22 12:39:11;;;;;;;20.00;13.73;;;;;;;;;;4992469;28;20119;-63
2023/04/22 12:41:37;;;;;;;18.02;13.40;;;;;;;;;;5014480;28;20429;-64
2023/04/22 12:44:04;;;;;;;19.48;10.90;;;;;;;;;;5014376;28;20030;-64
2023/04/22 12:46:29;;;;;;;16.02;11.30;;;;;;;;;;5014121;28;20027;-64
2023/04/22 12:48:55;;;;;;;17.42;11.57;;;;;;;;;;4995625;28;20397;-65
2023/04/22 12:51:21;;;;;;;16.15;10.55;;;;;;;;;;4996298;28;20025;-65
2023/04/22 12:53:47;;;;;;;16.58;10.10;;;;;;;;;;5006561;28;20056;-65
2023/04/22 12:56:14;;;;;;;15.32;10.70;;;;;;;;;;4994993;28;20113;-66
2023/04/22 12:58:40;;;;;;;15.57;10.15;;;;;;;;;;5014082;28;20077;-64
2023/04/22 13:01:06;;;;;;;16.65;11.00;;;;;;;;;;5014184;28;20030;-65
2023/04/22 13:03:32;;;;;;;16.77;10.60;;;;;;;;;;5013918;28;20052;-65
2023/04/22 13:05:58;;;;;;;16.25;10.68;;;;;;;;;;5014183;28;20483;-65
2023/04/22 13:08:24;;;;;;;16.77;10.75;;;;;;;;;;5014634;28;20014;-64
2023/04/22 13:10:50;;;;;;;16.02;10.40;;;;;;;;;;4996917;28;20026;-65
2023/04/22 13:13:16;;;;;;;16.92;10.55;;;;;;;;;;5015055;28;20036;-65
2023/04/22 13:15:42;;;;;;;16.30;10.50;;;;;;;;;;5014578;28;20026;-64
2023/04/22 13:18:08;;;;;;;16.73;10.90;;;;;;;;;;5014185;28;20038;-65
2023/04/22 13:20:34;;;;;;;18.50;11.13;;;;;;;;;;5013721;28;20537;-65
2023/04/22 13:23:01;;;;;;;14.70;9.77;;;;;;;;;;4666912;28;10000044;-65
2023/04/22 13:25:27;;;;;;;17.92;11.20;;;;;;;;;;4995570;28;20441;-67
2023/04/22 13:27:53;;;;;;;16.38;10.60;;;;;;;;;;5001379;28;20552;-65
2023/04/22 13:30:19;;;;;;;16.73;10.07;;;;;;;;;;4993570;28;20030;-65
2023/04/22 13:32:45;;;;;;;16.00;10.35;;;;;;;;;;5011220;28;20060;-65
2023/04/22 13:35:11;;;;;;;17.27;10.48;;;;;;;;;;5011145;28;20037;-64
2023/04/22 13:37:38;;;;;;;16.25;10.52;;;;;;;;;;5010896;28;20014;-64
2023/04/22 13:40:07;;;;;;;15.95;10.27;;;;;;;;;;5010668;28;20112;-64
2023/04/22 13:42:33;;;;;;;16.10;10.85;;;;;;;;;;5010450;28;20512;-66
2023/04/22 13:44:59;;;;;;;16.30;11.02;;;;;;;;;;5010368;28;20479;-66
2023/04/22 13:47:25;;;;;;;15.82;10.63;;;;;;;;;;5010580;28;20026;-65
2023/04/22 13:49:51;;;;;;;15.65;10.38;;;;;;;;;;5010499;28;20382;-65
2023/04/22 13:52:17;;;;;;;15.40;10.52;;;;;;;;;;5010503;28;20397;-67
2023/04/22 13:54:43;;;;;;;15.60;10.75;;;;;;;;;;4992983;28;20040;-65
2023/04/22 13:57:09;;;;;;;17.13;10.48;;;;;;;;;;5010342;28;20029;-64
2023/04/22 13:59:35;;;;;;;16.58;10.43;;;;;;;;;;4992603;28;20045;-64
2023/04/22 14:02:01;;;;;;;19.83;10.65;;;;;;;;;;5009909;28;20026;-63
2023/04/22 14:04:27;;;;;;;15.45;10.20;;;;;;;;;;4992312;28;20033;-66
2023/04/22 14:06:53;;;;;;;16.65;10.57;;;;;;;;;;5010254;28;20067;-64
2023/04/22 14:09:19;;;;;;;16.63;10.50;;;;;;;;;;5010276;28;20494;-65
2023/04/22 14:11:45;;;;;;;16.75;10.65;;;;;;;;;;5010274;28;20088;-65
2023/04/22 14:14:11;;;;;;;16.73;10.63;;;;;;;;;;5010036;28;20029;-64
2023/04/22 14:16:37;;;;;;;19.10;11.10;;;;;;;;;;5009974;28;20057;-64
2023/04/22 14:19:04;;;;;;;16.02;10.07;;;;;;;;;;4992421;28;20025;-65